Station WLXA2 - Wales, AK Image indicating link to RSS feed of recent meteorological observations for station WLXA2


Conditions at WLXA2 as of
(7:52 am AKDT)
1552 GMT on 08/31/2026:
     

Click on the graph icon in the table below to see a time series plot of the last five days of that observation.

5-day plot - Wind Direction Wind Direction (WDIR):WNW ( 290 deg true )
5-day plot - Wind Speed Wind Speed (WSPD): 5 kts
5-day plot - Wind Gust Wind Gust (GST): 9 kts
5-day plot - Atmospheric Pressure Atmospheric Pressure (PRES):29.99 in
5-day plot - Air Temperature Air Temperature (ATMP): 38.7 °F
5-day plot - Dew Point Dew Point (DEWP): 36.5 °F
5-day plot - Wind Chill Wind Chill (CHILL): 34.3 °F
5-day plot - Wind Speed at 10 Meters Wind Speed at 10 meters (WSPD10M): 6 kts
5-day plot - Wind Speed at 20 Meters Wind Speed at 20 meters (WSPD20M): 6 kts
5-day plot -  Wind Speed, Wind Gust and Atmospheric Pressure Combined plot of Wind Speed, Gust, and Air Pressure
Previous observations
TIME
(AKDT)
5-day plot - Wind Direction
WDIR
 
5-day plot - Wind Speed
WSPD
kts
5-day plot - Wind Gust
GST
kts
5-day plot - Wave Height
WVHT
ft
5-day plot - Dominant Wave Period
DPD
sec
5-day plot - Average Wave Period
APD
sec
5-day plot - Mean Wave Direction
MWD
 
5-day plot - Atmospheric Pressure
PRES
in
5-day plot - Pressure Tendency
PTDY
in
5-day plot - Air Temperature
ATMP
°F
5-day plot - Water Temperature
WTMP
°F
5-day plot - Dew Point
DEWP
°F
5-day plot - Salinity
SAL
psu
5-day plot - Visibility
VIS
nmi
5-day plot - Tide (above MLLW)
TIDE
ft
2026-08-31 07:42 am NW 7 11----29.99- 38.3- 36.5---
2026-08-31 07:32 amNNW 7 11----29.98- 38.3- 36.5---
2026-08-31 07:22 am NW 7 12----29.99- 37.9- 35.8---
2026-08-31 07:12 amNNW 5 9----29.98- 38.1- 36.3---
2026-08-31 07:02 amNNW 6 11----29.99- 38.1- 36.0---
2026-08-31 06:52 am N 5 8----29.98- 38.1- 36.0---
2026-08-31 06:42 amNNW 7 11----29.98- 37.9- 35.2---
2026-08-31 06:32 am N 5 8----29.98- 38.3- 35.6---
2026-08-31 06:22 am N 5 8----29.99- 38.1- 35.4---
2026-08-31 06:12 am N 7 11----29.98- 37.8- 35.4---
2026-08-31 06:02 am N 6 9----29.98- 37.8- 35.1---
2026-08-31 05:52 amNNW 5 9----29.98- 37.9- 35.2---
2026-08-31 05:42 amNNW 5 9----29.99- 37.8- 34.9---
2026-08-31 05:32 amNNW 8 13----29.98- 37.8- 35.1---
2026-08-31 05:22 amNNW 9 14----29.98- 38.1- 36.0---
2026-08-31 05:12 amNNW 9 13----29.97- 37.8- 35.1---
2026-08-31 05:02 am NW 9 14----29.98- 37.9- 35.6---
2026-08-31 04:52 amWNW 11 16----29.98- 37.9- 35.6---
2026-08-31 04:42 am NW 10 15----29.98- 38.3- 36.1---
2026-08-31 04:32 am NW 12 18----29.97- 38.1- 36.0---
2026-08-31 04:22 am NW 13 18----29.97- 38.5- 36.3---
2026-08-31 04:12 amWNW 12 16----29.98- 38.5- 36.7---
2026-08-31 04:02 am NW 11 15----29.97- 38.7- 36.3---
2026-08-31 03:52 am NW 12 17----29.98- 38.5- 36.1---
2026-08-31 03:42 am NW 11 14----29.97- 38.7- 36.0---
2026-08-31 03:32 am NW 10 15----29.97- 38.7- 36.3---
2026-08-31 03:22 am NW 12 15----29.97- 38.5- 36.1---
2026-08-31 03:12 am NW 11 15----29.97- 38.7- 35.8---
2026-08-31 03:02 am NW 12 18----29.97- 38.5- 36.1---
2026-08-31 02:52 am NW 12 18----29.97- 38.7- 36.0---
2026-08-31 02:42 am NW 13 18----29.97- 38.7- 35.8---
2026-08-31 02:32 am NW 13 18----29.97- 38.5- 35.8---
2026-08-31 02:22 am NW 14 19----29.97- 38.5- 35.8---
2026-08-31 02:12 am NW 14 20----29.97- 38.3- 36.0---
2026-08-31 02:02 am NW 13 18----29.98- 38.5- 36.3---
2026-08-31 01:52 am NW 14 21----29.98- 38.3- 36.1---
2026-08-31 01:42 am NW 14 21----29.97- 38.1- 36.0---
2026-08-31 01:32 am NW 16 22----29.97- 38.5- 36.7---
2026-08-31 01:22 am NW 15 21----29.97- 38.7- 36.5---
2026-08-31 01:12 am NW 16 22----29.96- 38.5- 36.1---
2026-08-31 01:02 amNNW 14 19----29.96- 38.5- 36.1---
2026-08-31 12:52 amNNW 14 18----29.96- 38.3- 36.0---
2026-08-31 12:42 am NW 15 22----29.96- 38.1- 35.8---
2026-08-31 12:32 am NW 17 23----29.95- 38.1- 36.0---
2026-08-31 12:22 am NW 17 23----29.96- 38.3- 36.0---
2026-08-31 12:12 am NW 16 23----29.95- 38.5- 36.7---
2026-08-31 12:02 am NW 18 23----29.95- 38.3- 36.1---
2026-08-30 11:52 pmNNW 17 24----29.95- 38.1- 36.0---
2026-08-30 11:42 pm NW 19 26----29.94- 38.1- 36.0---
2026-08-30 11:32 pm NW 19 25----29.94- 38.1- 36.3---
2026-08-30 11:22 pm NW 19 27----29.93- 37.9- 36.1---
2026-08-30 11:12 pm NW 20 29----29.93- 37.9- 36.3---
2026-08-30 11:02 pm NW 21 29----29.93- 37.9- 36.3---
2026-08-30 10:52 pm NW 22 29----29.92- 37.9- 35.8---
2026-08-30 10:42 pmNNW 21 31----29.91- 37.9- 36.1---
2026-08-30 10:32 pm NW 22 29----29.91- 38.1- 36.3---
2026-08-30 10:22 pmNNW 21 30----29.92- 37.9- 36.1---
2026-08-30 10:12 pm NW 24 31----29.91- 37.9- 35.8---
2026-08-30 10:02 pm NW 24 34----29.91- 37.9- 35.8---
2026-08-30 09:52 pm NW 22 35----29.91- 38.1- 36.0---
2026-08-30 09:42 pm NW 23 33----29.91- 38.1- 36.0---
2026-08-30 09:32 pm NW 24 33----29.91- 37.9- 35.6---
2026-08-30 09:22 pm NW 25 37----29.91- 37.9- 35.6---
2026-08-30 09:12 pm NW 25 34----29.91- 37.6- 35.4---
2026-08-30 09:02 pm NW 26 34----29.89- 37.8- 36.1---
2026-08-30 08:52 pm NW 24 34----29.89- 37.8- 36.0---
2026-08-30 08:42 pm NW 24 34----29.89- 37.8- 36.0---
2026-08-30 08:32 pm NW 26 34----29.88- 37.8- 35.6---
2026-08-30 08:22 pm NW 25 35----29.88- 37.9- 35.8---
2026-08-30 08:12 pm NW 26 35----29.87- 37.9- 35.8---
2026-08-30 08:02 pm NW 24 35----29.87- 37.8- 36.0---
2026-08-30 07:52 pm NW 24 33----29.87- 38.1- 36.3---
2026-08-30 07:42 pmWNW 26 34----29.86- 37.8- 35.6---
2026-08-30 07:32 pmWNW 25 33----29.86- 37.9- 36.3---
2026-08-30 07:22 pm NW 25 36----29.85- 38.1- 36.3---
2026-08-30 07:12 pm NW 27 35----29.85- 38.1- 36.0---
2026-08-30 07:02 pm NW 26 35----29.84- 37.9- 35.8---
2026-08-30 06:52 pmWNW 26 35----29.85- 38.1- 35.4---
2026-08-30 06:42 pmWNW 27 36----29.84- 38.1- 35.8---
2026-08-30 06:32 pmWNW 28 37----29.84- 38.3- 36.0---
2026-08-30 06:22 pmWNW 28 37----29.83- 37.9- 36.3---
2026-08-30 06:12 pmWNW 27 37----29.83- 38.1- 36.5---
2026-08-30 06:02 pmWNW 26 37----29.83- 38.3- 36.1---
2026-08-30 05:52 pmWNW 27 34----29.82- 38.7- 36.5---
2026-08-30 05:42 pmWNW 28 37----29.82- 38.7- 36.0---
2026-08-30 05:32 pmWNW 29 38----29.81- 38.5- 35.8---
2026-08-30 05:22 pmWNW 27 35----29.80- 38.8- 36.1---
2026-08-30 05:12 pmWNW 27 34----29.81- 39.6- 37.2---
2026-08-30 05:02 pmWNW 27 35----29.80- 38.3- 35.4---
2026-08-30 04:52 pmWNW 27 34----29.79- 38.7- 35.4---
2026-08-30 04:42 pmWNW 25 34----29.79- 39.0- 36.3---
2026-08-30 04:32 pm W 24 36----29.78- 38.5- 35.6---
2026-08-30 04:22 pm W 22 31----29.78- 38.1- 35.2---
2026-08-30 04:12 pm W 23 31----29.78- 38.3- 34.5---
2026-08-30 04:02 pmWNW 22 29----29.77- 37.9- 34.3---
2026-08-30 03:52 pmWNW 23 31----29.77- 38.3- 34.5---
2026-08-30 03:42 pmWNW 21 28----29.77- 38.3- 34.5---
2026-08-30 03:32 pmWNW 21 28----29.76- 37.8- 34.2---
2026-08-30 03:22 pm W 20 26----29.77- 38.8- 35.6---
2026-08-30 03:12 pm W 21 27----29.76- 37.9- 33.6---
2026-08-30 03:02 pm W 23 29----29.76- 37.9- 34.3---
2026-08-30 02:52 pm W 22 31----29.76- 37.2- 34.5---
2026-08-30 02:42 pm W 20 27----29.76- 37.6- 35.2---
2026-08-30 02:32 pm W 23 29----29.75- 37.6- 34.3---
2026-08-30 02:22 pm W 26 34----29.75- 37.9- 33.6---
2026-08-30 02:12 pm W 26 35----29.75- 37.9- 33.8---
2026-08-30 02:02 pm W 23 32----29.74- 36.9- 34.0---
2026-08-30 01:52 pm W 26 38----29.74- 36.9- 34.7---
2026-08-30 01:42 pmWSW 24 37----29.74- 38.8- 34.2---
2026-08-30 01:32 pmWSW 23 29----29.75- 38.7- 35.4---
2026-08-30 01:22 pmWSW 23 31----29.75- 37.9- 35.2---
2026-08-30 01:12 pm W 23 32----29.75- 37.8- 35.1---
2026-08-30 01:02 pm W 23 34----29.75- 37.4- 34.5---
2026-08-30 12:52 pmWSW 21 29----29.76- 37.8- 35.6---
2026-08-30 12:42 pmWSW 18 27----29.76- 37.0- 34.3---
2026-08-30 12:32 pmWSW 20 27----29.76- 37.9- 35.1---
2026-08-30 12:22 pmWSW 20 31----29.76- 37.8- 34.0---
2026-08-30 12:12 pmWSW 19 26----29.77- 37.9- 34.2---
2026-08-30 12:02 pmWSW 20 27----29.76- 38.1- 34.3---
2026-08-30 11:52 am W 20 30----29.76- 37.9- 32.9---
2026-08-30 11:42 amWSW 21 29----29.77- 38.8- 34.3---
2026-08-30 11:32 amWSW 22 32----29.76- 38.7- 34.2---
2026-08-30 11:22 am W 20 28----29.77- 39.4- 34.3---
2026-08-30 11:12 am W 21 27----29.77- 39.0- 34.0---
2026-08-30 11:02 amWSW 21 30----29.76- 40.5- 34.7---
2026-08-30 10:52 amWSW 19 28----29.77- 41.5- 35.8---
2026-08-30 10:42 am W 22 30----29.76- 39.6- 36.0---
2026-08-30 10:32 amWSW 20 27----29.76- 41.4- 35.1---
2026-08-30 10:22 amWSW 19 26----29.76- 41.9- 36.1---
2026-08-30 10:12 amWSW 19 26----29.75- 41.7- 35.4---
2026-08-30 10:02 amWSW 17 23----29.75- 41.9- 35.6---
2026-08-30 09:52 amWSW 16 21----29.75- 41.9- 35.8---
2026-08-30 09:42 am W 17 24----29.75- 41.5- 36.7---
2026-08-30 09:32 am W 17 23----29.75- 41.5- 36.7---
2026-08-30 09:22 am W 16 23----29.76- 41.7- 36.7---
2026-08-30 09:12 am W 17 24----29.75- 41.7- 36.7---
2026-08-30 09:02 amWSW 15 20----29.76- 41.9- 36.9---
2026-08-30 08:52 amWSW 17 23----29.75- 41.5- 35.8---
2026-08-30 08:42 am W 18 26----29.75- 41.7- 36.7---
2026-08-30 08:32 amWSW 19 26----29.75- 42.1- 37.0---
2026-08-30 08:22 amWSW 19 27----29.75- 42.3- 36.5---
2026-08-30 08:12 amWSW 20 26----29.74- 41.9- 35.2---
2026-08-30 08:02 amWSW 21 28----29.74- 42.3- 36.1---
2026-08-30 07:52 am W 20 26----29.75- 42.4- 36.7---